Kezdőlap
METAR-TAF:

METAR-TAF

Repülőterek :

Kasane, Botswana

földrajzi szélesség: 17-49S, földrajzi hosszúság: 025-09E, magasság: 968 m

Jelenlegi meteorológiai megfigyelések

A jelentés 3 órával és 15 perccel ezelõtt készült, 12:00 UTC
Észak-északnyugati szél 5 kt, nyugati és északkeleti között változik
Hőmérséklet 26°C
Páratartalom 26%
Légköri nyomás 1020 hPa
Látótávolság 10 km, vagy több
felhőtlen 1500 m magasságban, és nincs gomolyfelhõ

METAR: FBKE 181200Z 34005KT 280V040 CAVOK 26/05 Q1020

Idő: 17:15 (15:15 UTC)

Előrejelzés

A jelentés 3 órával és 15 perccel ezelõtt készült, 12:00 UTC
Az előrejelzés 18-én 15 óra UTC és 18-én 24 óra UTC között érvényes
Keleti szél 6 kt
Látótávolság 10 km, vagy több
felhőtlen 1500 m magasságban, és nincs gomolyfelhõ

TAF: FBKE 181200Z 1815/1824 10006KT CAVOK

Meteorológiai megfigyelések és előrejelzések több, mint 4000 repülőtéren (METAR és TAF jelentéseket).

A térképen piros és sárga pontok jelzik az elérhető meteorológiai állomásokat.

Mozgassa az egeret a pont fölött, hogy megjelenjen az állomás neve.

Azután kattintson az időjárási megfigyelések és előrejelzések megtekintéséhez.

A térkép megváltoztatása: kattintson a fekete keresztel jelölt zöld gombra ráközelítéshez, a vonallal jelölt zöld gombra távolításhoz, vagy a zöld nyilakra a szomszédos térképek eléréséhez.


METAR-TAF: